Time;durP1;ratioP1;P1;durP2;ratioP2;P2;SDS_P1;SDS_P2;PMS_P1;PMS_P2;Temp;Humidity;BMP_temperature;BMP_pressure;BME280_temperature;BME280_humidity;BME280_pressure;Samples;Min_cycle;Max_cycle;Signal;HPM_P1;HPM_P2
2022/08/19 00:00:04;;;;;;;17.77;14.77;;;;;;;18.44;100.00;98164.50;5066450;28;20088;-67
2022/08/19 00:02:29;;;;;;;20.55;14.85;;;;;;;18.38;100.00;98170.19;5066586;28;20021;-67
2022/08/19 00:04:55;;;;;;;18.92;14.48;;;;;;;18.39;100.00;98166.59;5066318;28;20029;-67
2022/08/19 00:07:21;;;;;;;17.23;14.60;;;;;;;18.41;100.00;98163.81;5066018;28;20044;-67
2022/08/19 00:09:46;;;;;;;18.00;13.82;;;;;;;18.44;100.00;98152.97;5066286;28;20082;-67
2022/08/19 00:12:12;;;;;;;19.23;14.18;;;;;;;18.39;100.00;98149.75;5066268;28;20025;-67
2022/08/19 00:14:39;;;;;;;18.25;13.75;;;;;;;18.39;100.00;98155.06;5058451;28;20088;-67
2022/08/19 00:17:06;;;;;;;18.00;14.02;;;;;;;18.40;100.00;98141.66;5046409;28;20025;-67
2022/08/19 00:19:32;;;;;;;20.20;14.93;;;;;;;18.33;100.00;98139.41;5046156;28;20033;-67
2022/08/19 00:21:58;;;;;;;17.73;14.18;;;;;;;18.35;100.00;98149.03;5046349;28;20313;-67
2022/08/19 00:24:25;;;;;;;19.70;14.20;;;;;;;18.36;100.00;98155.22;5045991;28;20067;-67
2022/08/19 00:26:51;;;;;;;20.58;15.25;;;;;;;18.35;100.00;98154.34;5045961;28;20040;-67
2022/08/19 00:29:19;;;;;;;22.15;15.63;;;;;;;18.25;100.00;98158.50;5045851;28;20079;-67
2022/08/19 00:31:46;;;;;;;20.95;15.05;;;;;;;18.24;100.00;98172.78;5045963;28;20221;-67
2022/08/19 00:34:13;;;;;;;19.23;15.63;;;;;;;18.17;100.00;98165.22;5045887;28;20043;-67
2022/08/19 00:36:40;;;;;;;17.90;14.52;;;;;;;18.14;100.00;98165.38;5045832;28;20033;-67
2022/08/19 00:39:05;;;;;;;18.63;13.85;;;;;;;18.10;100.00;98166.53;5045798;28;20032;-67
2022/08/19 00:41:31;;;;;;;20.25;15.98;;;;;;;18.09;100.00;98157.66;5047815;28;20392;-67
2022/08/19 00:43:59;;;;;;;19.77;15.48;;;;;;;18.10;100.00;98153.19;5064028;28;20020;-67
2022/08/19 00:46:25;;;;;;;18.13;15.15;;;;;;;18.10;100.00;98148.72;5065506;28;20042;-67
2022/08/19 00:48:51;;;;;;;21.30;15.00;;;;;;;18.11;100.00;98141.59;5065596;28;20190;-67
2022/08/19 00:51:16;;;;;;;22.17;14.95;;;;;;;18.05;100.00;98128.63;5065574;28;20070;-67
2022/08/19 00:53:43;;;;;;;17.27;14.95;;;;;;;18.08;100.00;98133.78;5065504;28;20041;-67
2022/08/19 00:56:08;;;;;;;27.40;17.83;;;;;;;18.01;100.00;98133.28;5065110;28;20051;-67
2022/08/19 00:58:35;;;;;;;20.40;15.50;;;;;;;17.98;100.00;98140.56;5065338;28;20025;-67
2022/08/19 01:01:03;;;;;;;24.55;17.55;;;;;;;17.94;100.00;98137.22;5065410;28;20025;-67
2022/08/19 01:03:28;;;;;;;25.50;18.50;;;;;;;17.97;100.00;98137.03;5065362;28;20039;-67
2022/08/19 01:05:55;;;;;;;24.05;18.48;;;;;;;17.91;100.00;98144.53;5065151;28;20235;-67
2022/08/19 01:08:21;;;;;;;24.30;18.42;;;;;;;17.92;100.00;98138.25;5065176;28;20028;-67
2022/08/19 01:10:51;;;;;;;22.92;17.73;;;;;;;17.92;100.00;98132.94;5065173;28;20029;-67
2022/08/19 01:13:19;;;;;;;25.52;18.10;;;;;;;17.88;100.00;98132.22;5065050;28;20044;-67
2022/08/19 01:15:51;;;;;;;24.75;18.63;;;;;;;17.82;100.00;98123.75;5065023;28;20021;-67
2022/08/19 01:18:18;;;;;;;28.85;17.75;;;;;;;17.81;100.00;98128.19;5064527;28;20336;-67
2022/08/19 01:20:45;;;;;;;27.17;18.65;;;;;;;17.78;100.00;98124.88;5064603;28;20339;-67
2022/08/19 01:23:12;;;;;;;29.02;21.63;;;;;;;17.76;100.00;98137.41;5065159;28;20023;-67
2022/08/19 01:25:50;;;;;;;26.55;17.95;;;;;;;17.74;100.00;98139.28;5064470;28;20078;-67
2022/08/19 01:28:25;;;;;;;28.52;19.10;;;;;;;17.76;100.00;98153.38;5064736;28;20071;-67
2022/08/19 01:30:51;;;;;;;25.92;18.83;;;;;;;17.72;100.00;98157.16;5064670;28;20052;-67
2022/08/19 01:33:19;;;;;;;24.27;18.38;;;;;;;17.71;100.00;98160.72;5064731;28;20092;-67
2022/08/19 01:35:44;;;;;;;25.55;18.83;;;;;;;17.70;100.00;98170.53;5064925;28;20013;-67
2022/08/19 01:38:21;;;;;;;29.55;21.02;;;;;;;17.74;100.00;98165.88;5064596;28;20077;-67
2022/08/19 01:40:46;;;;;;;29.63;21.38;;;;;;;17.77;100.00;98173.72;5048092;28;20067;-67
2022/08/19 01:43:11;;;;;;;27.80;20.48;;;;;;;17.77;100.00;98166.59;5044606;28;20025;-67
2022/08/19 01:45:40;;;;;;;28.98;20.73;;;;;;;17.81;100.00;98167.28;5044563;28;20025;-67
2022/08/19 01:48:05;;;;;;;32.67;22.35;;;;;;;17.81;100.00;98172.63;5047156;28;20078;-67
2022/08/19 01:50:33;;;;;;;30.73;21.77;;;;;;;17.80;100.00;98165.56;5064450;28;20024;-67
2022/08/19 01:52:59;;;;;;;34.13;23.25;;;;;;;17.76;100.00;98161.34;5064348;28;20056;-67
2022/08/19 01:55:25;;;;;;;38.42;25.83;;;;;;;17.72;100.00;98168.63;5064261;28;20016;-67
2022/08/19 01:57:54;;;;;;;31.35;22.77;;;;;;;17.75;100.00;98157.81;5061500;28;20096;-67
2022/08/19 02:00:22;;;;;;;38.75;25.75;;;;;;;17.75;100.00;98178.28;5064274;28;20025;-67
2022/08/19 02:02:48;;;;;;;35.30;22.38;;;;;;;17.77;100.00;98171.03;5064165;28;20066;-67
2022/08/19 02:05:13;;;;;;;32.90;22.90;;;;;;;17.77;100.00;98171.03;5064135;28;20029;-67
2022/08/19 02:07:40;;;;;;;33.10;22.55;;;;;;;17.75;100.00;98162.31;5064186;28;20044;-67
2022/08/19 02:10:10;;;;;;;38.85;24.02;;;;;;;17.72;100.00;98173.13;5064369;28;20331;-67
2022/08/19 02:12:36;;;;;;;31.35;22.48;;;;;;;17.71;100.00;98174.03;5064084;28;20088;-67
2022/08/19 02:15:02;;;;;;;29.60;22.83;;;;;;;17.73;100.00;98183.69;5063893;28;20039;-67
2022/08/19 02:17:29;;;;;;;35.15;24.02;;;;;;;17.75;100.00;98178.28;5064299;28;20059;-67
2022/08/19 02:19:56;;;;;;;29.42;21.20;;;;;;;17.77;100.00;98181.69;5064200;28;20308;-67
2022/08/19 02:22:22;;;;;;;32.30;23.52;;;;;;;17.77;100.00;98181.69;5044319;28;20021;-67
2022/08/19 02:24:47;;;;;;;32.00;20.42;;;;;;;17.76;100.00;98180.00;5044150;28;20440;-67
2022/08/19 02:27:13;;;;;;;27.30;19.67;;;;;;;17.78;100.00;98184.28;5043893;28;20029;-67
2022/08/19 02:29:39;;;;;;;31.95;23.30;;;;;;;17.71;100.00;98182.03;5043582;28;20047;-67
2022/08/19 02:32:04;;;;;;;31.52;23.33;;;;;;;17.73;100.00;98190.81;5043942;28;20025;-67
2022/08/19 02:34:30;;;;;;;25.63;18.70;;;;;;;17.67;100.00;98192.00;5043955;28;20025;-67
2022/08/19 02:36:55;;;;;;;28.58;20.23;;;;;;;17.66;100.00;98189.41;5043848;28;20336;-67
2022/08/19 02:39:20;;;;;;;29.63;20.75;;;;;;;17.66;100.00;98184.09;5050640;28;20021;-67
2022/08/19 02:41:46;;;;;;;28.48;19.35;;;;;;;17.69;100.00;98178.63;5063785;28;20040;-67
2022/08/19 02:44:12;;;;;;;30.00;21.17;;;;;;;17.68;100.00;98176.91;5063683;28;20025;-67
2022/08/19 02:46:37;;;;;;;28.83;20.60;;;;;;;17.70;100.00;98177.66;5063703;28;20021;-67
2022/08/19 02:49:06;;;;;;;30.75;20.77;;;;;;;17.71;100.00;98184.69;5063987;28;20029;-67
2022/08/19 02:51:43;;;;;;;32.30;22.60;;;;;;;17.68;100.00;98182.22;5063580;28;20052;-67
2022/08/19 02:54:12;;;;;;;32.90;21.77;;;;;;;17.66;100.00;98184.09;5047702;28;20079;-67
2022/08/19 02:56:40;;;;;;;32.60;21.38;;;;;;;17.64;100.00;98181.53;5043613;28;20037;-67
2022/08/19 02:59:08;;;;;;;28.60;21.60;;;;;;;17.67;100.00;98185.81;5043531;28;20029;-67
2022/08/19 03:01:34;;;;;;;32.63;20.65;;;;;;;17.66;100.00;98186.75;5043660;28;20222;-67
2022/08/19 03:04:03;;;;;;;30.00;22.48;;;;;;;17.57;100.00;98181.94;5043656;28;20203;-67
2022/08/19 03:06:29;;;;;;;30.55;21.33;;;;;;;17.53;100.00;98183.06;5062386;28;20029;-67
2022/08/19 03:08:55;;;;;;;27.20;20.17;;;;;;;17.57;100.00;98184.59;5063521;28;20246;-67
2022/08/19 03:11:26;;;;;;;26.73;20.42;;;;;;;17.54;100.00;98179.44;5063514;28;20025;-67
2022/08/19 03:13:53;;;;;;;32.47;22.58;;;;;;;17.52;100.00;98176.84;5063535;28;20021;-67
2022/08/19 03:16:19;;;;;;;28.60;19.73;;;;;;;17.54;100.00;98182.09;5063710;28;20072;-67
2022/08/19 03:18:45;;;;;;;26.55;20.23;;;;;;;17.56;100.00;98173.09;5063661;28;20017;-67
2022/08/19 03:21:16;;;;;;;32.95;21.40;;;;;;;17.61;100.00;98175.50;5063394;28;20023;-66
2022/08/19 03:23:41;;;;;;;29.73;21.38;;;;;;;17.62;100.00;98182.56;5063408;28;20088;-66
2022/08/19 03:26:07;;;;;;;30.00;20.13;;;;;;;17.54;100.00;98185.63;5063339;28;20021;-66
2022/08/19 03:28:33;;;;;;;36.67;22.38;;;;;;;17.36;100.00;98183.03;5063353;28;20028;-66
2022/08/19 03:31:12;;;;;;;40.17;25.48;;;;;;;17.33;100.00;98189.41;5063207;28;20363;-66
2022/08/19 03:33:38;;;;;;;45.33;28.05;;;;;;;17.36;100.00;98196.34;5063367;28;20264;-66
2022/08/19 03:36:05;;;;;;;37.50;27.50;;;;;;;17.34;100.00;98204.44;5063530;28;20013;-66
2022/08/19 03:38:32;;;;;;;38.75;26.20;;;;;;;17.36;100.00;98191.91;5045998;28;20025;-66
2022/08/19 03:40:57;;;;;;;39.05;26.60;;;;;;;17.33;100.00;98191.22;5043275;28;20021;-66
2022/08/19 03:43:23;;;;;;;33.20;24.95;;;;;;;17.31;100.00;98196.63;5045890;28;20191;-66
2022/08/19 03:45:48;;;;;;;33.65;23.58;;;;;;;17.31;100.00;98190.44;5046733;28;20054;-66
2022/08/19 03:48:16;;;;;;;33.97;23.40;;;;;;;17.34;100.00;98192.94;5047003;28;20040;-66
2022/08/19 03:50:42;;;;;;;33.85;22.20;;;;;;;17.33;100.00;98196.53;5046744;28;20032;-66
2022/08/19 03:53:08;;;;;;;32.40;22.02;;;;;;;17.36;100.00;98196.34;5046647;28;20251;-66
2022/08/19 03:55:39;;;;;;;30.77;21.70;;;;;;;17.33;100.00;98202.69;5047362;28;20044;-66
2022/08/19 03:58:06;;;;;;;34.25;23.25;;;;;;;17.32;100.00;98205.44;5046579;28;20021;-66
2022/08/19 04:00:32;;;;;;;30.45;22.67;;;;;;;17.27;100.00;98198.56;5049575;28;20021;-66
2022/08/19 04:02:57;;;;;;;34.30;22.00;;;;;;;17.17;100.00;98204.44;5066727;28;20021;-66
2022/08/19 04:05:23;;;;;;;33.35;23.17;;;;;;;17.00;100.00;98200.00;5066358;28;20017;-66
2022/08/19 04:07:48;;;;;;;35.75;24.83;;;;;;;16.95;100.00;98202.03;5066332;28;20020;-66
2022/08/19 04:10:13;;;;;;;37.63;24.75;;;;;;;16.92;100.00;98201.34;5054622;28;20021;-66
2022/08/19 04:12:39;;;;;;;38.88;26.40;;;;;;;16.91;100.00;98199.63;5046326;28;20064;-66
2022/08/19 04:15:05;;;;;;;38.42;25.58;;;;;;;16.85;100.00;98206.13;5046530;28;20017;-66
2022/08/19 04:17:31;;;;;;;45.38;26.80;;;;;;;16.80;100.00;98197.50;5046257;28;20026;-66
2022/08/19 04:19:56;;;;;;;37.97;26.02;;;;;;;16.81;100.00;98199.22;5046152;28;20127;-66
2022/08/19 04:22:22;;;;;;;36.92;25.00;;;;;;;16.70;100.00;98204.22;5046351;28;20029;-66
2022/08/19 04:24:47;;;;;;;36.30;24.90;;;;;;;16.67;100.00;98206.16;5046004;28;20021;-66
2022/08/19 04:27:13;;;;;;;36.58;25.17;;;;;;;16.58;100.00;98193.38;5045952;28;20022;-66
2022/08/19 04:29:40;;;;;;;35.08;23.95;;;;;;;16.54;100.00;98194.44;5054972;28;20104;-66
2022/08/19 04:32:06;;;;;;;44.90;25.27;;;;;;;16.51;100.00;98195.47;5065964;28;20047;-66
2022/08/19 04:34:31;;;;;;;42.53;28.40;;;;;;;16.50;100.00;98192.88;5065931;28;20321;-66
2022/08/19 04:36:58;;;;;;;52.08;30.92;;;;;;;16.42;100.00;98195.88;5061125;28;20020;-66
2022/08/19 04:42:38;;;;;;;45.58;28.48;;;;;;;16.44;100.00;98204.69;5065466;28;20036;-66
2022/08/19 04:44:58;;;;;;;42.10;29.88;;;;;;;16.38;100.00;98199.63;5065587;28;20442;-66
2022/08/19 04:47:24;;;;;;;49.58;31.02;;;;;;;16.33;100.00;98209.59;5065895;28;20092;-66
2022/08/19 04:49:49;;;;;;;44.35;29.02;;;;;;;16.35;100.00;98205.09;5065584;28;20027;-66
2022/08/19 04:52:14;;;;;;;44.45;27.75;;;;;;;16.34;100.00;98205.16;5065562;28;20021;-66
2022/08/19 04:54:40;;;;;;;41.13;27.60;;;;;;;16.34;100.00;98203.38;5065444;28;20086;-66
2022/08/19 04:57:09;;;;;;;38.47;27.17;;;;;;;16.39;100.00;98201.34;5065521;28;20216;-66
2022/08/19 04:59:36;;;;;;;38.28;27.20;;;;;;;16.42;100.00;98206.50;5065622;28;20025;-66
2022/08/19 05:02:03;;;;;;;38.45;26.75;;;;;;;16.41;100.00;98212.75;5065451;28;20032;-66
2022/08/19 05:04:31;;;;;;;45.08;29.23;;;;;;;16.41;100.00;98218.06;5065274;28;20020;-66
2022/08/19 05:06:57;;;;;;;35.17;25.50;;;;;;;16.42;100.00;98217.13;5065525;28;20024;-66
2022/08/19 05:09:22;;;;;;;38.38;26.40;;;;;;;16.46;100.00;98212.56;5065254;28;20021;-66
2022/08/19 05:11:49;;;;;;;36.38;26.17;;;;;;;16.45;100.00;98211.69;5065167;28;20029;-66
2022/08/19 05:14:14;;;;;;;36.60;25.13;;;;;;;16.41;100.00;98215.41;5065149;28;20259;-66
2022/08/19 05:16:40;;;;;;;39.38;26.73;;;;;;;16.39;100.00;98211.97;5065083;28;20017;-66
2022/08/19 05:24:36;;;;;;;38.72;25.60;;;;;;;16.56;100.00;98229.78;5064845;28;20106;-66
2022/08/19 05:27:02;;;;;;;36.95;25.80;;;;;;;16.63;100.00;98232.06;5064869;28;20092;-66
2022/08/19 05:29:31;;;;;;;42.38;28.05;;;;;;;16.68;100.00;98229.19;5064663;28;20247;-66
2022/08/19 05:31:57;;;;;;;36.65;27.25;;;;;;;16.72;100.00;98236.06;5065007;28;20062;-66
2022/08/19 05:34:25;;;;;;;40.75;28.83;;;;;;;16.78;100.00;98236.63;5064709;28;20029;-66
2022/08/19 05:36:56;;;;;;;37.75;27.38;;;;;;;17.06;100.00;98242.22;5064689;28;20021;-66
2022/08/19 05:39:25;;;;;;;34.80;25.70;;;;;;;17.17;100.00;98247.00;5064922;28;20084;-66
2022/08/19 05:41:56;;;;;;;40.10;27.80;;;;;;;17.19;100.00;98253.09;5064555;28;20024;-66
2022/08/19 05:44:24;;;;;;;40.23;27.27;;;;;;;17.25;100.00;98255.47;5064534;28;20021;-66
2022/08/19 05:46:52;;;;;;;41.90;26.35;;;;;;;17.31;100.00;98257.81;5064504;28;20040;-66
2022/08/19 05:49:19;;;;;;;36.72;25.70;;;;;;;17.36;100.00;98263.72;5064677;28;20021;-66
2022/08/19 05:51:45;;;;;;;40.72;28.08;;;;;;;17.46;100.00;98267.66;5064377;28;20025;-66
2022/08/19 05:54:13;;;;;;;37.90;27.02;;;;;;;17.52;100.00;98255.84;5064459;28;20020;-66
2022/08/19 05:56:39;;;;;;;37.35;26.83;;;;;;;17.61;100.00;98258.00;5064585;28;20376;-66
2022/08/19 05:59:10;;;;;;;36.35;26.05;;;;;;;17.75;100.00;98271.44;5064344;28;20359;-66
2022/08/19 06:01:40;;;;;;;40.75;27.45;;;;;;;17.91;100.00;98275.00;5064290;28;20021;-66
2022/08/19 06:04:06;;;;;;;41.13;26.75;;;;;;;18.08;100.00;98283.78;5064193;28;20024;-66
2022/08/19 06:06:34;;;;;;;37.08;28.23;;;;;;;18.13;100.00;98286.22;5063917;28;20048;-66
2022/08/19 06:09:03;;;;;;;35.47;25.33;;;;;;;18.13;100.00;98289.72;5064446;28;20021;-66
2022/08/19 06:11:49;;;;;;;37.33;26.95;;;;;;;18.37;100.00;98296.41;5064096;28;20027;-66
2022/08/19 06:14:20;;;;;;;35.25;25.35;;;;;;;18.66;100.00;98297.41;5064080;28;20078;-66
2022/08/19 06:16:45;;;;;;;37.80;27.08;;;;;;;18.74;100.00;98300.50;5063988;28;20031;-66
2022/08/19 06:19:14;;;;;;;33.38;24.27;;;;;;;18.84;100.00;98302.56;5064058;28;20024;-66
2022/08/19 06:21:41;;;;;;;34.20;24.92;;;;;;;18.90;100.00;98307.53;5064290;28;20021;-66
2022/08/19 06:24:09;;;;;;;37.95;25.80;;;;;;;18.94;100.00;98305.53;5063912;28;20051;-66
2022/08/19 06:26:36;;;;;;;34.50;24.50;;;;;;;19.08;100.00;98308.28;5063913;28;20025;-66
2022/08/19 06:29:05;;;;;;;37.55;25.90;;;;;;;19.13;100.00;98308.84;5063694;28;21179;-66
2022/08/19 06:31:33;;;;;;;32.17;24.75;;;;;;;19.24;100.00;98306.44;5063941;28;20176;-66
2022/08/19 06:34:02;;;;;;;31.90;23.98;;;;;;;19.30;99.75;98311.41;5063827;28;20086;-66
2022/08/19 06:36:33;;;;;;;35.70;24.75;;;;;;;19.43;99.05;98312.44;5063847;28;20080;-66
2022/08/19 06:39:06;;;;;;;37.15;24.65;;;;;;;19.82;98.18;98315.34;5063796;28;20027;-66
2022/08/19 06:41:35;;;;;;;41.42;25.42;;;;;;;20.66;95.20;98314.47;5063744;28;20027;-66
2022/08/19 06:44:00;;;;;;;29.02;22.88;;;;;;;21.49;89.24;98316.94;5063828;28;20024;-66
2022/08/19 06:46:26;;;;;;;29.48;22.58;;;;;;;22.14;85.00;98310.53;5063617;28;20025;-66
2022/08/19 06:48:53;;;;;;;39.10;21.58;;;;;;;23.09;80.66;98307.09;5063951;28;20025;-66
2022/08/19 06:51:19;;;;;;;23.60;17.48;;;;;;;23.77;78.31;98305.44;5063689;28;20025;-66
2022/08/19 06:53:49;;;;;;;27.83;19.63;;;;;;;24.49;75.98;98310.41;5063709;28;20320;-66
2022/08/19 06:56:20;;;;;;;23.45;17.88;;;;;;;24.96;72.40;98309.25;5063992;28;20017;-66
2022/08/19 06:58:46;;;;;;;24.10;15.90;;;;;;;25.60;68.32;98304.75;5063941;28;20045;-66
2022/08/19 07:01:12;;;;;;;16.95;12.23;;;;;;;26.13;64.61;98309.97;5063649;28;20070;-66
2022/08/19 07:03:39;;;;;;;19.83;12.77;;;;;;;26.33;63.44;98306.41;5063642;28;20048;-66
2022/08/19 07:06:07;;;;;;;16.83;13.25;;;;;;;26.48;62.75;98306.88;5063531;28;20044;-66
2022/08/19 07:08:33;;;;;;;17.50;13.95;;;;;;;26.72;61.84;98307.41;5063808;28;20351;-66
2022/08/19 07:10:59;;;;;;;21.48;13.10;;;;;;;26.85;60.98;98310.72;5063509;28;20028;-66
2022/08/19 07:13:25;;;;;;;21.02;14.50;;;;;;;26.89;60.63;98309.47;5063497;28;20025;-66
2022/08/19 07:15:51;;;;;;;24.27;15.90;;;;;;;27.55;59.69;98311.41;5063435;28;20028;-66
2022/08/19 07:18:19;;;;;;;23.60;15.35;;;;;;;28.02;57.17;98307.81;5066349;28;20017;-66
2022/08/19 07:20:44;;;;;;;20.83;15.32;;;;;;;28.45;55.32;98308.16;5067279;28;20048;-66
2022/08/19 07:23:10;;;;;;;21.30;16.10;;;;;;;28.56;55.10;98313.38;5067274;28;20067;-66
2022/08/19 07:25:37;;;;;;;22.33;15.30;;;;;;;28.20;56.14;98303.38;5067419;28;20209;-66
2022/08/19 07:28:02;;;;;;;24.45;16.80;;;;;;;27.14;58.84;98303.50;5067054;28;20031;-66
2022/08/19 07:30:28;;;;;;;25.55;17.77;;;;;;;28.29;55.91;98305.19;5066966;28;20064;-66
2022/08/19 07:32:53;;;;;;;24.02;15.88;;;;;;;28.97;54.35;98296.63;5067101;28;20021;-66
2022/08/19 07:35:19;;;;;;;25.75;18.45;;;;;;;28.54;53.82;98296.41;5067044;28;20021;-66
2022/08/19 07:37:45;;;;;;;26.63;17.08;;;;;;;29.03;53.90;98290.63;5066925;28;20186;-66
2022/08/19 07:40:11;;;;;;;27.05;16.92;;;;;;;29.11;53.62;98293.41;5066914;28;20067;-66
2022/08/19 07:42:36;;;;;;;27.70;17.33;;;;;;;28.62;54.02;98290.25;5066828;28;20021;-66
2022/08/19 07:45:04;;;;;;;24.70;18.25;;;;;;;27.81;55.52;98290.88;5066843;28;20032;-66
2022/08/19 07:47:29;;;;;;;24.30;17.58;;;;;;;27.31;57.89;98283.97;5067016;28;20021;-66
2022/08/19 07:49:56;;;;;;;26.20;18.77;;;;;;;27.23;57.86;98283.75;5066738;28;20343;-66
2022/08/19 07:52:22;;;;;;;35.33;18.85;;;;;;;26.49;58.63;98279.75;5065610;28;20021;-66
2022/08/19 07:54:47;;;;;;;27.67;19.73;;;;;;;26.46;61.57;98289.97;5066919;28;20021;-66
2022/08/19 07:57:13;;;;;;;27.85;18.77;;;;;;;26.50;61.32;98286.00;5066851;28;20031;-66
2022/08/19 07:59:38;;;;;;;23.48;17.40;;;;;;;27.08;60.27;98293.25;5066650;28;20027;-66
2022/08/19 08:02:04;;;;;;;30.48;19.33;;;;;;;27.27;58.39;98282.50;5066566;28;20025;-66
2022/08/19 08:10:00;;;;;;;27.15;18.40;;;;;;;27.30;57.42;98286.78;5066368;28;20023;-66
2022/08/19 08:12:33;;;;;;;28.75;19.48;;;;;;;27.37;57.21;98287.94;5066280;28;20044;-66
2022/08/19 08:15:01;;;;;;;28.33;20.95;;;;;;;27.55;56.74;98292.47;5066253;28;20045;-66
2022/08/19 08:17:28;;;;;;;29.27;20.92;;;;;;;28.42;55.21;98294.03;5066213;28;20035;-66
2022/08/19 08:19:54;;;;;;;32.95;22.85;;;;;;;28.23;54.91;98294.97;5066179;28;20020;-66
2022/08/19 08:25:09;;;;;;;35.30;23.85;;;;;;;28.82;52.82;98308.97;5066046;28;20355;-66
2022/08/19 08:27:40;;;;;;;28.30;20.40;;;;;;;28.10;54.43;98312.50;5065534;28;20021;-66
2022/08/19 08:30:09;;;;;;;32.03;22.55;;;;;;;27.91;55.39;98316.13;5065799;28;20052;-66
2022/08/19 08:32:36;;;;;;;34.20;22.15;;;;;;;28.89;52.70;98314.66;5066213;28;20092;-66
2022/08/19 08:35:04;;;;;;;29.33;21.35;;;;;;;29.21;52.25;98313.16;5066189;28;20074;-66
2022/08/19 08:37:30;;;;;;;31.83;22.77;;;;;;;28.63;52.57;98313.66;5065846;28;20023;-66
2022/08/19 08:39:55;;;;;;;30.70;22.98;;;;;;;28.70;52.57;98314.75;5065990;28;20024;-66
2022/08/19 08:42:27;;;;;;;33.05;20.73;;;;;;;28.81;52.95;98318.09;5065758;28;20308;-66
2022/08/19 08:44:59;;;;;;;36.17;23.52;;;;;;;28.87;52.91;98309.38;5065712;28;20032;-66
2022/08/19 08:47:27;;;;;;;34.05;23.80;;;;;;;29.34;52.06;98314.66;5065680;28;20332;-66
2022/08/19 08:50:01;;;;;;;38.08;24.88;;;;;;;28.90;51.98;98321.75;5065653;28;20025;-66
2022/08/19 08:52:33;;;;;;;39.83;24.75;;;;;;;28.95;51.92;98320.31;5065558;28;20025;-66
2022/08/19 08:54:58;;;;;;;;;;;;;;;29.93;49.37;98314.91;5065963;28;20025;-66
2022/08/19 08:57:47;;;;;;;33.70;23.17;;;;;;;30.12;49.19;98312.81;5065479;28;20010;-66
2022/08/19 09:00:20;;;;;;;34.33;22.35;;;;;;;30.03;48.91;98305.66;5062380;28;20087;-66
2022/08/19 09:02:46;;;;;;;32.92;20.88;;;;;;;29.63;48.94;98310.75;5065613;28;20016;-66
2022/08/19 09:05:14;;;;;;;27.92;20.17;;;;;;;29.43;51.09;98314.59;5065221;28;20062;-66
2022/08/19 09:08:07;;;;;;;27.05;18.88;;;;;;;29.42;49.46;98321.00;5065274;28;20021;-66
2022/08/19 09:10:36;;;;;;;22.63;17.40;;;;;;;29.58;50.62;98328.47;5065506;28;20212;-66
2022/08/19 09:13:31;;;;;;;26.35;20.92;;;;;;;30.07;48.50;98333.31;5065122;28;20017;-66
2022/08/19 09:16:05;;;;;;;28.45;19.02;;;;;;;30.45;48.30;98330.22;5062448;28;20112;-66
2022/08/19 09:18:52;;;;;;;29.80;18.90;;;;;;;30.45;47.11;98324.78;5065002;28;20032;-66
2022/08/19 09:21:20;;;;;;;27.88;17.00;;;;;;;29.19;49.39;98312.50;5064984;28;20029;-66
2022/08/19 09:23:45;;;;;;;22.92;16.35;;;;;;;30.09;48.71;98306.88;5065191;28;20027;-66
2022/08/19 09:26:16;;;;;;;29.63;17.27;;;;;;;29.95;48.22;98312.88;5064844;28;20021;-66
2022/08/19 09:28:46;;;;;;;23.60;16.45;;;;;;;30.49;47.43;98315.28;5064899;28;20024;-66
2022/08/19 09:31:17;;;;;;;24.30;17.75;;;;;;;30.95;45.87;98313.03;5064891;28;20032;-66
2022/08/19 09:33:43;;;;;;;24.40;15.93;;;;;;;31.20;46.10;98316.66;5064834;28;20029;-66
2022/08/19 09:36:11;;;;;;;23.48;15.38;;;;;;;31.05;46.34;98318.31;5064698;28;20066;-66
2022/08/19 09:38:40;;;;;;;18.00;13.73;;;;;;;31.07;46.44;98316.28;5064683;28;20255;-66
2022/08/19 09:41:15;;;;;;;19.77;14.75;;;;;;;31.27;45.38;98312.28;5063848;28;20023;-66
2022/08/19 09:43:42;;;;;;;22.70;15.13;;;;;;;31.49;43.97;98311.66;5064591;28;20036;-66
2022/08/19 09:46:11;;;;;;;18.45;13.27;;;;;;;32.14;43.08;98313.38;5064751;28;20035;-67
2022/08/19 09:48:37;;;;;;;17.30;12.88;;;;;;;31.74;43.13;98312.53;5064747;28;20020;-67
2022/08/19 09:51:03;;;;;;;22.33;14.23;;;;;;;30.30;46.02;98310.97;5064710;28;20374;-67
2022/08/19 09:53:29;;;;;;;26.98;15.50;;;;;;;28.71;48.47;98303.75;5064397;28;20221;-67
2022/08/19 09:55:55;;;;;;;27.48;13.82;;;;;;;29.30;48.77;98302.44;5064403;28;20016;-67
2022/08/19 09:58:20;;;;;;;20.45;14.25;;;;;;;29.50;48.59;98293.13;5064304;28;20024;-67
2022/08/19 10:00:46;;;;;;;19.58;13.32;;;;;;;29.79;47.73;98296.44;5064329;28;20032;-67
2022/08/19 10:03:11;;;;;;;18.98;12.43;;;;;;;30.05;45.67;98292.75;5064327;28;20024;-67
2022/08/19 10:05:48;;;;;;;19.17;12.85;;;;;;;30.10;45.79;98300.44;5064198;28;20084;-67
2022/08/19 10:08:21;;;;;;;20.52;12.02;;;;;;;30.15;45.26;98284.53;5064258;28;20020;-67
2022/08/19 10:10:47;;;;;;;15.25;10.13;;;;;;;29.11;47.52;98281.75;5064189;28;20324;-67
2022/08/19 10:13:15;;;;;;;13.55;9.95;;;;;;;29.61;46.78;98290.19;5064107;28;20059;-67
2022/08/19 10:15:41;;;;;;;15.10;9.55;;;;;;;30.44;45.07;98288.63;5064109;28;20336;-67
2022/08/19 10:18:07;;;;;;;12.15;10.18;;;;;;;30.22;44.90;98291.03;5064295;28;20045;-67
2022/08/19 10:20:32;;;;;;;17.33;9.82;;;;;;;28.67;48.11;98283.38;5064085;28;20083;-67
2022/08/19 10:23:00;;;;;;;15.70;10.50;;;;;;;27.60;50.09;98290.19;5063943;28;20028;-67
2022/08/19 10:25:26;;;;;;;16.95;11.43;;;;;;;27.17;51.63;98289.72;5063878;28;20024;-67
2022/08/19 10:27:53;;;;;;;15.52;10.63;;;;;;;28.12;50.51;98291.56;5061885;28;20021;-67
2022/08/19 10:30:19;;;;;;;14.55;10.25;;;;;;;29.46;47.04;98292.59;5045972;28;20222;-67
2022/08/19 10:32:45;;;;;;;12.43;9.10;;;;;;;30.73;44.42;98291.88;5043950;28;20025;-68
2022/08/19 10:35:12;;;;;;;20.25;10.52;;;;;;;31.11;43.24;98293.19;5043888;28;20029;-68
2022/08/19 10:37:38;;;;;;;15.10;9.07;;;;;;;31.06;42.06;98287.38;5047017;28;20031;-68
2022/08/19 10:40:07;;;;;;;19.50;10.63;;;;;;;29.46;45.08;98278.19;5063269;28;20024;-68
2022/08/19 10:42:33;;;;;;;18.73;11.02;;;;;;;28.08;48.14;98280.19;5056611;28;20025;-68
2022/08/19 10:44:58;;;;;;;21.27;10.88;;;;;;;27.38;50.10;98279.69;5044902;28;20162;-68
2022/08/19 10:47:24;;;;;;;20.70;11.65;;;;;;;28.08;49.98;98276.59;5043839;28;20333;-68
2022/08/19 10:52:33;;;;;;;16.88;10.88;;;;;;;28.23;48.80;98267.88;5047067;28;20024;-68
2022/08/19 10:57:52;;;;;;;15.90;9.73;;;;;;;28.02;51.51;98264.53;5047828;28;20028;-68
2022/08/19 11:00:22;;;;;;;15.27;10.75;;;;;;;28.79;48.96;98260.50;5048042;28;20088;-68
2022/08/19 11:02:48;;;;;;;16.77;10.65;;;;;;;29.17;46.67;98260.28;5047709;28;20021;-68
2022/08/19 11:05:14;;;;;;;15.30;9.88;;;;;;;29.72;47.16;98265.53;5047954;28;20025;-68
2022/08/19 11:07:41;;;;;;;16.08;10.57;;;;;;;30.09;45.54;98253.41;5055143;28;20029;-68
2022/08/19 11:10:09;;;;;;;15.32;9.93;;;;;;;29.70;46.39;98254.03;5047539;28;20033;-68
2022/08/19 11:12:39;;;;;;;15.98;9.95;;;;;;;29.60;45.70;98247.78;5047792;28;20214;-68
2022/08/19 11:15:07;;;;;;;14.85;10.57;;;;;;;29.30;46.68;98245.50;5047732;28;20353;-68
2022/08/19 11:17:33;;;;;;;17.92;10.52;;;;;;;29.26;46.69;98244.09;5055515;28;20036;-68
2022/08/19 11:19:59;;;;;;;16.98;10.77;;;;;;;29.36;45.92;98240.31;5047386;28;20088;-68
2022/08/19 11:22:24;;;;;;;15.88;10.43;;;;;;;29.46;45.86;98237.50;5047592;28;20021;-68
2022/08/19 11:24:50;;;;;;;15.63;10.02;;;;;;;29.84;46.07;98242.56;5047238;28;20228;-68
2022/08/19 11:27:15;;;;;;;25.05;10.10;;;;;;;30.11;45.52;98239.69;5063455;28;20092;-68
2022/08/19 11:29:41;;;;;;;15.30;9.20;;;;;;;29.12;45.62;98240.94;5066508;28;20029;-68
2022/08/19 11:32:09;;;;;;;15.45;10.05;;;;;;;27.98;48.02;98246.88;5064039;28;20028;-68
2022/08/19 11:34:35;;;;;;;17.35;10.52;;;;;;;27.63;48.00;98241.25;5065357;28;20340;-68
2022/08/19 11:37:03;;;;;;;13.43;10.20;;;;;;;28.15;48.02;98256.94;5051348;28;20029;-68